sensor_id;sensor_type;location;lat;lon;timestamp;P1;P2;P0
66155;PMS5003;52957;50.848;20.656;2024-03-07T00:10:10;87;82;46
66155;PMS5003;52957;50.848;20.656;2024-03-07T00:20:09;87;82;46
66155;PMS5003;52957;50.848;20.656;2024-03-07T00:30:18;87;82;46
66155;PMS5003;52957;50.848;20.656;2024-03-07T00:40:08;99;93;55
66155;PMS5003;52957;50.848;20.656;2024-03-07T00:50:14;99;93;55
66155;PMS5003;52957;50.848;20.656;2024-03-07T01:00:01;99;93;55
66155;PMS5003;52957;50.848;20.656;2024-03-07T01:10:14;88;85;47
66155;PMS5003;52957;50.848;20.656;2024-03-07T01:20:03;88;85;47
66155;PMS5003;52957;50.848;20.656;2024-03-07T01:30:11;88;85;47
66155;PMS5003;52957;50.848;20.656;2024-03-07T01:40:12;93;73;41
66155;PMS5003;52957;50.848;20.656;2024-03-07T01:50:04;93;73;41
66155;PMS5003;52957;50.848;20.656;2024-03-07T02:00:18;93;73;41
66155;PMS5003;52957;50.848;20.656;2024-03-07T02:10:02;92;81;47
66155;PMS5003;52957;50.848;20.656;2024-03-07T02:20:02;92;81;47
66155;PMS5003;52957;50.848;20.656;2024-03-07T02:30:19;92;81;47
66155;PMS5003;52957;50.848;20.656;2024-03-07T02:40:02;80;69;39
66155;PMS5003;52957;50.848;20.656;2024-03-07T02:50:02;80;69;39
66155;PMS5003;52957;50.848;20.656;2024-03-07T03:00:02;80;69;39
66155;PMS5003;52957;50.848;20.656;2024-03-07T03:10:21;88;75;43
66155;PMS5003;52957;50.848;20.656;2024-03-07T03:20:34;88;75;43
66155;PMS5003;52957;50.848;20.656;2024-03-07T03:30:02;88;75;43
66155;PMS5003;52957;50.848;20.656;2024-03-07T03:40:01;110;83;43
66155;PMS5003;52957;50.848;20.656;2024-03-07T03:50:03;110;83;43
66155;PMS5003;52957;50.848;20.656;2024-03-07T04:00:17;110;83;43
66155;PMS5003;52957;50.848;20.656;2024-03-07T04:10:02;98;90;48
66155;PMS5003;52957;50.848;20.656;2024-03-07T04:20:19;98;90;48
66155;PMS5003;52957;50.848;20.656;2024-03-07T04:30:02;98;90;48
66155;PMS5003;52957;50.848;20.656;2024-03-07T04:40:03;102;88;40
66155;PMS5003;52957;50.848;20.656;2024-03-07T04:50:17;102;88;40
66155;PMS5003;52957;50.848;20.656;2024-03-07T05:00:21;102;88;40
66155;PMS5003;52957;50.848;20.656;2024-03-07T05:10:07;102;83;44
66155;PMS5003;52957;50.848;20.656;2024-03-07T05:20:14;102;83;44
66155;PMS5003;52957;50.848;20.656;2024-03-07T05:30:12;102;83;44
66155;PMS5003;52957;50.848;20.656;2024-03-07T05:40:14;92;84;46
66155;PMS5003;52957;50.848;20.656;2024-03-07T05:50:08;92;84;46
66155;PMS5003;52957;50.848;20.656;2024-03-07T06:00:28;92;84;46
66155;PMS5003;52957;50.848;20.656;2024-03-07T06:10:26;106;100;51
66155;PMS5003;52957;50.848;20.656;2024-03-07T06:20:04;106;100;51
66155;PMS5003;52957;50.848;20.656;2024-03-07T06:30:20;106;100;51
66155;PMS5003;52957;50.848;20.656;2024-03-07T06:40:10;106;95;46
66155;PMS5003;52957;50.848;20.656;2024-03-07T06:50:22;106;95;46
66155;PMS5003;52957;50.848;20.656;2024-03-07T07:00:19;106;95;46
66155;PMS5003;52957;50.848;20.656;2024-03-07T07:10:01;92;77;44
66155;PMS5003;52957;50.848;20.656;2024-03-07T07:20:15;92;77;44
66155;PMS5003;52957;50.848;20.656;2024-03-07T07:30:07;92;77;44
66155;PMS5003;52957;50.848;20.656;2024-03-07T07:50:18;87;79;42
66155;PMS5003;52957;50.848;20.656;2024-03-07T08:00:10;87;79;42
66155;PMS5003;52957;50.848;20.656;2024-03-07T08:10:16;86;77;41
66155;PMS5003;52957;50.848;20.656;2024-03-07T08:20:24;86;77;41
66155;PMS5003;52957;50.848;20.656;2024-03-07T08:30:16;86;77;41
66155;PMS5003;52957;50.848;20.656;2024-03-07T08:40:31;109;100;45
66155;PMS5003;52957;50.848;20.656;2024-03-07T08:50:14;109;100;45
66155;PMS5003;52957;50.848;20.656;2024-03-07T09:00:25;109;100;45
66155;PMS5003;52957;50.848;20.656;2024-03-07T09:10:15;96;85;47
66155;PMS5003;52957;50.848;20.656;2024-03-07T09:20:07;96;85;47
66155;PMS5003;52957;50.848;20.656;2024-03-07T09:30:03;96;85;47
66155;PMS5003;52957;50.848;20.656;2024-03-07T09:40:12;79;72;37
66155;PMS5003;52957;50.848;20.656;2024-03-07T09:50:29;79;72;37
66155;PMS5003;52957;50.848;20.656;2024-03-07T10:00:07;79;72;37
66155;PMS5003;52957;50.848;20.656;2024-03-07T10:10:20;96;82;45
66155;PMS5003;52957;50.848;20.656;2024-03-07T10:20:22;96;82;45
66155;PMS5003;52957;50.848;20.656;2024-03-07T10:30:23;96;82;45
66155;PMS5003;52957;50.848;20.656;2024-03-07T10:40:15;71;68;36
66155;PMS5003;52957;50.848;20.656;2024-03-07T11:01:04;71;68;36
66155;PMS5003;52957;50.848;20.656;2024-03-07T11:10:23;79;73;39
66155;PMS5003;52957;50.848;20.656;2024-03-07T11:20:47;79;73;39
66155;PMS5003;52957;50.848;20.656;2024-03-07T11:30:23;79;73;39
66155;PMS5003;52957;50.848;20.656;2024-03-07T11:50:12;75;68;30
66155;PMS5003;52957;50.848;20.656;2024-03-07T12:00:25;75;68;30
66155;PMS5003;52957;50.848;20.656;2024-03-07T12:10:16;56;56;32
66155;PMS5003;52957;50.848;20.656;2024-03-07T12:20:33;56;56;32
66155;PMS5003;52957;50.848;20.656;2024-03-07T12:30:19;56;56;32
66155;PMS5003;52957;50.848;20.656;2024-03-07T12:40:34;69;57;31
66155;PMS5003;52957;50.848;20.656;2024-03-07T12:50:11;69;57;31
66155;PMS5003;52957;50.848;20.656;2024-03-07T13:00:21;69;57;31
66155;PMS5003;52957;50.848;20.656;2024-03-07T13:10:20;76;75;38
66155;PMS5003;52957;50.848;20.656;2024-03-07T13:20:14;76;75;38
66155;PMS5003;52957;50.848;20.656;2024-03-07T13:30:07;76;75;38
66155;PMS5003;52957;50.848;20.656;2024-03-07T13:40:39;79;69;35
66155;PMS5003;52957;50.848;20.656;2024-03-07T13:50:16;79;69;35
66155;PMS5003;52957;50.848;20.656;2024-03-07T14:00:54;79;69;35
66155;PMS5003;52957;50.848;20.656;2024-03-07T14:30:45;87;73;38
66155;PMS5003;52957;50.848;20.656;2024-03-07T14:40:19;94;83;45
66155;PMS5003;52957;50.848;20.656;2024-03-07T14:50:03;94;83;45
66155;PMS5003;52957;50.848;20.656;2024-03-07T15:00:27;94;83;45
66155;PMS5003;52957;50.848;20.656;2024-03-07T15:10:02;78;75;37
66155;PMS5003;52957;50.848;20.656;2024-03-07T15:20:22;78;75;37
66155;PMS5003;52957;50.848;20.656;2024-03-07T15:30:02;78;75;37
66155;PMS5003;52957;50.848;20.656;2024-03-07T15:40:21;80;70;38
66155;PMS5003;52957;50.848;20.656;2024-03-07T15:50:08;80;70;38
66155;PMS5003;52957;50.848;20.656;2024-03-07T16:00:34;80;70;38
66155;PMS5003;52957;50.848;20.656;2024-03-07T16:10:02;89;85;41
66155;PMS5003;52957;50.848;20.656;2024-03-07T16:20:06;89;85;41
66155;PMS5003;52957;50.848;20.656;2024-03-07T16:30:08;89;85;41
66155;PMS5003;52957;50.848;20.656;2024-03-07T16:40:18;133;120;61
66155;PMS5003;52957;50.848;20.656;2024-03-07T16:50:01;133;120;61
66155;PMS5003;52957;50.848;20.656;2024-03-07T17:00:31;133;120;61
66155;PMS5003;52957;50.848;20.656;2024-03-07T17:20:10;94;86;49
66155;PMS5003;52957;50.848;20.656;2024-03-07T17:30:21;94;86;49
66155;PMS5003;52957;50.848;20.656;2024-03-07T17:50:16;93;82;44
66155;PMS5003;52957;50.848;20.656;2024-03-07T18:00:36;93;82;44
66155;PMS5003;52957;50.848;20.656;2024-03-07T18:20:21;444;393;215
66155;PMS5003;52957;50.848;20.656;2024-03-07T18:30:02;444;393;215
66155;PMS5003;52957;50.848;20.656;2024-03-07T18:50:17;390;327;165
66155;PMS5003;52957;50.848;20.656;2024-03-07T19:00:32;390;327;165
66155;PMS5003;52957;50.848;20.656;2024-03-07T19:20:23;452;353;171
66155;PMS5003;52957;50.848;20.656;2024-03-07T19:30:03;452;353;171
66155;PMS5003;52957;50.848;20.656;2024-03-07T19:40:10;452;353;171
66155;PMS5003;52957;50.848;20.656;2024-03-07T19:50:11;529;422;211
66155;PMS5003;52957;50.848;20.656;2024-03-07T20:00:02;529;422;211
66155;PMS5003;52957;50.848;20.656;2024-03-07T20:10:15;529;422;211
66155;PMS5003;52957;50.848;20.656;2024-03-07T20:20:16;331;273;151
66155;PMS5003;52957;50.848;20.656;2024-03-07T20:30:02;331;273;151
66155;PMS5003;52957;50.848;20.656;2024-03-07T20:40:07;331;273;151
66155;PMS5003;52957;50.848;20.656;2024-03-07T20:50:09;346;305;166
66155;PMS5003;52957;50.848;20.656;2024-03-07T21:00:05;346;305;166
66155;PMS5003;52957;50.848;20.656;2024-03-07T21:10:20;346;305;166
66155;PMS5003;52957;50.848;20.656;2024-03-07T21:20:20;377;313;171
66155;PMS5003;52957;50.848;20.656;2024-03-07T21:30:10;377;313;171
66155;PMS5003;52957;50.848;20.656;2024-03-07T21:40:06;377;313;171
66155;PMS5003;52957;50.848;20.656;2024-03-07T21:50:17;350;306;169
66155;PMS5003;52957;50.848;20.656;2024-03-07T22:00:15;350;306;169
66155;PMS5003;52957;50.848;20.656;2024-03-07T22:10:12;350;306;169
66155;PMS5003;52957;50.848;20.656;2024-03-07T22:20:15;362;302;165
66155;PMS5003;52957;50.848;20.656;2024-03-07T22:30:26;362;302;165
66155;PMS5003;52957;50.848;20.656;2024-03-07T22:40:16;362;302;165
66155;PMS5003;52957;50.848;20.656;2024-03-07T22:50:12;346;295;149
66155;PMS5003;52957;50.848;20.656;2024-03-07T23:00:26;346;295;149
66155;PMS5003;52957;50.848;20.656;2024-03-07T23:10:21;553;484;232
66155;PMS5003;52957;50.848;20.656;2024-03-07T23:20:02;553;484;232
66155;PMS5003;52957;50.848;20.656;2024-03-07T23:30:02;553;484;232
66155;PMS5003;52957;50.848;20.656;2024-03-07T23:40:19;375;314;161
66155;PMS5003;52957;50.848;20.656;2024-03-07T23:50:14;375;314;161
